sensor_id;sensor_type;location;lat;lon;timestamp;temperature;humidity
46706;DHT22;33519;50.712;7.124;2023-02-25T00:02:02;4.40;99.90
46706;DHT22;33519;50.712;7.124;2023-02-25T00:04:30;4.40;99.90
46706;DHT22;33519;50.712;7.124;2023-02-25T00:06:57;4.40;99.90
46706;DHT22;33519;50.712;7.124;2023-02-25T00:09:23;4.40;99.90
46706;DHT22;33519;50.712;7.124;2023-02-25T00:11:50;4.40;99.90
46706;DHT22;33519;50.712;7.124;2023-02-25T00:14:16;4.40;99.90
46706;DHT22;33519;50.712;7.124;2023-02-25T00:16:43;4.40;99.90
46706;DHT22;33519;50.712;7.124;2023-02-25T00:19:10;4.40;99.90
46706;DHT22;33519;50.712;7.124;2023-02-25T00:21:37;4.40;99.90
46706;DHT22;33519;50.712;7.124;2023-02-25T00:24:03;4.40;99.90
46706;DHT22;33519;50.712;7.124;2023-02-25T00:26:42;4.30;99.90
46706;DHT22;33519;50.712;7.124;2023-02-25T00:29:08;4.40;99.90
46706;DHT22;33519;50.712;7.124;2023-02-25T00:31:35;4.30;99.90
46706;DHT22;33519;50.712;7.124;2023-02-25T00:34:02;4.30;99.90
46706;DHT22;33519;50.712;7.124;2023-02-25T00:36:28;4.30;99.90
46706;DHT22;33519;50.712;7.124;2023-02-25T00:38:55;4.30;99.90
46706;DHT22;33519;50.712;7.124;2023-02-25T00:41:24;4.30;99.90
46706;DHT22;33519;50.712;7.124;2023-02-25T00:43:53;4.30;99.90
46706;DHT22;33519;50.712;7.124;2023-02-25T00:46:20;4.20;99.90
46706;DHT22;33519;50.712;7.124;2023-02-25T00:48:47;4.20;99.90
46706;DHT22;33519;50.712;7.124;2023-02-25T00:51:15;4.20;99.90
46706;DHT22;33519;50.712;7.124;2023-02-25T00:53:42;4.20;99.90
46706;DHT22;33519;50.712;7.124;2023-02-25T00:56:09;4.20;99.90
46706;DHT22;33519;50.712;7.124;2023-02-25T00:58:37;4.20;99.90
46706;DHT22;33519;50.712;7.124;2023-02-25T01:01:04;4.20;99.90
46706;DHT22;33519;50.712;7.124;2023-02-25T01:03:31;4.20;99.90
46706;DHT22;33519;50.712;7.124;2023-02-25T01:05:58;4.20;99.90
46706;DHT22;33519;50.712;7.124;2023-02-25T01:08:24;4.20;99.90
46706;DHT22;33519;50.712;7.124;2023-02-25T01:10:51;4.20;99.90
46706;DHT22;33519;50.712;7.124;2023-02-25T01:13:19;4.10;99.90
46706;DHT22;33519;50.712;7.124;2023-02-25T01:15:45;4.10;99.90
46706;DHT22;33519;50.712;7.124;2023-02-25T01:18:12;4.10;99.90
46706;DHT22;33519;50.712;7.124;2023-02-25T01:20:39;4.10;99.90
46706;DHT22;33519;50.712;7.124;2023-02-25T01:23:05;4.10;99.90
46706;DHT22;33519;50.712;7.124;2023-02-25T01:25:32;4.10;99.90
46706;DHT22;33519;50.712;7.124;2023-02-25T01:27:59;4.10;99.90
46706;DHT22;33519;50.712;7.124;2023-02-25T01:30:26;4.10;99.90
46706;DHT22;33519;50.712;7.124;2023-02-25T01:32:52;4.10;99.90
46706;DHT22;33519;50.712;7.124;2023-02-25T01:35:19;4.10;99.90
46706;DHT22;33519;50.712;7.124;2023-02-25T01:37:46;4.10;99.90
46706;DHT22;33519;50.712;7.124;2023-02-25T01:40:15;4.00;99.90
46706;DHT22;33519;50.712;7.124;2023-02-25T01:42:43;4.00;99.90
46706;DHT22;33519;50.712;7.124;2023-02-25T01:47:47;4.00;99.90
46706;DHT22;33519;50.712;7.124;2023-02-25T01:50:19;4.00;99.90
46706;DHT22;33519;50.712;7.124;2023-02-25T01:52:47;4.00;99.90
46706;DHT22;33519;50.712;7.124;2023-02-25T01:55:14;4.00;99.90
46706;DHT22;33519;50.712;7.124;2023-02-25T01:57:40;3.90;99.90
46706;DHT22;33519;50.712;7.124;2023-02-25T02:00:07;3.90;99.90
46706;DHT22;33519;50.712;7.124;2023-02-25T02:02:37;3.90;99.90
46706;DHT22;33519;50.712;7.124;2023-02-25T02:05:04;3.90;99.90
46706;DHT22;33519;50.712;7.124;2023-02-25T02:07:31;3.90;99.90
46706;DHT22;33519;50.712;7.124;2023-02-25T02:09:58;3.90;99.90
46706;DHT22;33519;50.712;7.124;2023-02-25T02:12:26;3.90;99.90
46706;DHT22;33519;50.712;7.124;2023-02-25T02:14:54;3.90;99.90
46706;DHT22;33519;50.712;7.124;2023-02-25T02:17:23;3.80;99.90
46706;DHT22;33519;50.712;7.124;2023-02-25T02:20:04;3.90;99.90
46706;DHT22;33519;50.712;7.124;2023-02-25T02:22:43;3.90;99.90
46706;DHT22;33519;50.712;7.124;2023-02-25T02:30:16;3.80;99.90
46706;DHT22;33519;50.712;7.124;2023-02-25T02:43:55;3.90;99.90
46706;DHT22;33519;50.712;7.124;2023-02-25T02:46:23;3.90;99.90
46706;DHT22;33519;50.712;7.124;2023-02-25T02:51:22;3.80;99.90
46706;DHT22;33519;50.712;7.124;2023-02-25T02:53:52;3.80;99.90
46706;DHT22;33519;50.712;7.124;2023-02-25T02:56:19;3.80;99.90
46706;DHT22;33519;50.712;7.124;2023-02-25T02:58:49;3.80;99.90
46706;DHT22;33519;50.712;7.124;2023-02-25T03:02:01;3.80;99.90
46706;DHT22;33519;50.712;7.124;2023-02-25T03:04:09;3.70;99.90
46706;DHT22;33519;50.712;7.124;2023-02-25T03:06:37;3.70;99.90
46706;DHT22;33519;50.712;7.124;2023-02-25T03:09:13;3.70;99.90
46706;DHT22;33519;50.712;7.124;2023-02-25T03:11:40;3.70;99.90
46706;DHT22;33519;50.712;7.124;2023-02-25T03:14:07;3.80;99.90
46706;DHT22;33519;50.712;7.124;2023-02-25T03:16:35;3.70;99.90
46706;DHT22;33519;50.712;7.124;2023-02-25T03:19:05;3.70;99.90
46706;DHT22;33519;50.712;7.124;2023-02-25T03:21:47;3.70;99.90
46706;DHT22;33519;50.712;7.124;2023-02-25T03:24:16;3.70;99.90
46706;DHT22;33519;50.712;7.124;2023-02-25T03:26:48;3.70;99.90
46706;DHT22;33519;50.712;7.124;2023-02-25T03:29:16;3.70;99.90
46706;DHT22;33519;50.712;7.124;2023-02-25T03:31:53;3.70;99.90
46706;DHT22;33519;50.712;7.124;2023-02-25T03:34:29;3.80;99.90
46706;DHT22;33519;50.712;7.124;2023-02-25T03:36:58;3.70;99.90
46706;DHT22;33519;50.712;7.124;2023-02-25T03:39:27;3.70;99.90
46706;DHT22;33519;50.712;7.124;2023-02-25T03:41:54;3.70;99.90
46706;DHT22;33519;50.712;7.124;2023-02-25T03:44:26;3.70;99.90
46706;DHT22;33519;50.712;7.124;2023-02-25T03:46:54;3.70;99.90
46706;DHT22;33519;50.712;7.124;2023-02-25T03:49:26;3.70;99.90
46706;DHT22;33519;50.712;7.124;2023-02-25T03:51:54;3.70;99.90
46706;DHT22;33519;50.712;7.124;2023-02-25T03:54:22;3.70;99.90
46706;DHT22;33519;50.712;7.124;2023-02-25T03:56:49;3.80;99.90
46706;DHT22;33519;50.712;7.124;2023-02-25T03:59:16;3.70;99.90
46706;DHT22;33519;50.712;7.124;2023-02-25T04:01:44;3.70;99.90
46706;DHT22;33519;50.712;7.124;2023-02-25T04:04:12;3.70;99.90
46706;DHT22;33519;50.712;7.124;2023-02-25T04:06:39;3.70;99.90
46706;DHT22;33519;50.712;7.124;2023-02-25T04:09:05;3.70;99.90
46706;DHT22;33519;50.712;7.124;2023-02-25T04:11:32;3.70;99.90
46706;DHT22;33519;50.712;7.124;2023-02-25T04:13:58;3.70;99.90
46706;DHT22;33519;50.712;7.124;2023-02-25T04:16:25;3.70;99.90
46706;DHT22;33519;50.712;7.124;2023-02-25T04:18:52;3.70;99.90
46706;DHT22;33519;50.712;7.124;2023-02-25T04:21:24;3.70;99.90
46706;DHT22;33519;50.712;7.124;2023-02-25T04:23:51;3.70;99.90
46706;DHT22;33519;50.712;7.124;2023-02-25T04:26:18;3.70;99.90
46706;DHT22;33519;50.712;7.124;2023-02-25T04:28:45;3.70;99.90
46706;DHT22;33519;50.712;7.124;2023-02-25T04:31:12;3.70;99.90
46706;DHT22;33519;50.712;7.124;2023-02-25T04:33:39;3.70;99.90
46706;DHT22;33519;50.712;7.124;2023-02-25T04:36:09;3.70;99.90
46706;DHT22;33519;50.712;7.124;2023-02-25T04:38:46;3.70;99.90
46706;DHT22;33519;50.712;7.124;2023-02-25T04:41:13;3.70;99.90
46706;DHT22;33519;50.712;7.124;2023-02-25T04:43:40;3.80;99.90
46706;DHT22;33519;50.712;7.124;2023-02-25T04:46:06;3.70;99.90
46706;DHT22;33519;50.712;7.124;2023-02-25T04:48:33;3.70;99.90
46706;DHT22;33519;50.712;7.124;2023-02-25T04:51:00;3.70;99.90
46706;DHT22;33519;50.712;7.124;2023-02-25T04:53:27;3.70;99.90
46706;DHT22;33519;50.712;7.124;2023-02-25T04:55:56;3.60;99.90
46706;DHT22;33519;50.712;7.124;2023-02-25T04:58:22;3.50;99.90
46706;DHT22;33519;50.712;7.124;2023-02-25T05:00:49;3.50;99.90
46706;DHT22;33519;50.712;7.124;2023-02-25T05:03:16;3.40;99.90
46706;DHT22;33519;50.712;7.124;2023-02-25T05:05:42;3.40;99.90
46706;DHT22;33519;50.712;7.124;2023-02-25T05:08:09;3.40;99.90
46706;DHT22;33519;50.712;7.124;2023-02-25T05:10:36;3.40;99.90
46706;DHT22;33519;50.712;7.124;2023-02-25T05:13:03;3.40;99.90
46706;DHT22;33519;50.712;7.124;2023-02-25T05:15:29;3.40;99.90
46706;DHT22;33519;50.712;7.124;2023-02-25T05:17:56;3.40;99.90
46706;DHT22;33519;50.712;7.124;2023-02-25T05:20:22;3.40;99.90
46706;DHT22;33519;50.712;7.124;2023-02-25T05:22:52;3.40;99.90
46706;DHT22;33519;50.712;7.124;2023-02-25T05:25:18;3.40;99.90
46706;DHT22;33519;50.712;7.124;2023-02-25T05:27:45;3.40;99.90
46706;DHT22;33519;50.712;7.124;2023-02-25T05:30:12;3.40;99.90
46706;DHT22;33519;50.712;7.124;2023-02-25T05:32:38;3.50;99.90
46706;DHT22;33519;50.712;7.124;2023-02-25T05:35:06;3.50;99.90
46706;DHT22;33519;50.712;7.124;2023-02-25T05:37:36;3.50;99.90
46706;DHT22;33519;50.712;7.124;2023-02-25T05:40:03;3.50;99.90
46706;DHT22;33519;50.712;7.124;2023-02-25T05:42:30;3.60;99.90
46706;DHT22;33519;50.712;7.124;2023-02-25T05:44:56;3.50;99.90
46706;DHT22;33519;50.712;7.124;2023-02-25T05:47:23;3.50;99.90
46706;DHT22;33519;50.712;7.124;2023-02-25T05:49:50;3.60;99.90
46706;DHT22;33519;50.712;7.124;2023-02-25T05:52:16;3.60;99.90
46706;DHT22;33519;50.712;7.124;2023-02-25T05:54:43;3.60;99.90
46706;DHT22;33519;50.712;7.124;2023-02-25T05:57:09;3.60;99.90
46706;DHT22;33519;50.712;7.124;2023-02-25T05:59:36;3.60;99.90
46706;DHT22;33519;50.712;7.124;2023-02-25T06:02:02;3.60;99.90
46706;DHT22;33519;50.712;7.124;2023-02-25T06:04:29;3.60;99.90
46706;DHT22;33519;50.712;7.124;2023-02-25T06:06:56;3.50;99.90
46706;DHT22;33519;50.712;7.124;2023-02-25T06:09:22;3.50;99.90
46706;DHT22;33519;50.712;7.124;2023-02-25T06:11:49;3.60;99.90
46706;DHT22;33519;50.712;7.124;2023-02-25T06:14:15;3.60;99.90
46706;DHT22;33519;50.712;7.124;2023-02-25T06:16:42;3.60;99.90
46706;DHT22;33519;50.712;7.124;2023-02-25T06:19:10;3.60;99.90
46706;DHT22;33519;50.712;7.124;2023-02-25T06:21:37;3.60;99.90
46706;DHT22;33519;50.712;7.124;2023-02-25T06:24:03;3.70;99.90
46706;DHT22;33519;50.712;7.124;2023-02-25T06:26:31;3.70;99.90
46706;DHT22;33519;50.712;7.124;2023-02-25T06:28:57;3.70;99.90
46706;DHT22;33519;50.712;7.124;2023-02-25T06:31:24;3.70;99.90
46706;DHT22;33519;50.712;7.124;2023-02-25T06:33:50;3.70;99.90
46706;DHT22;33519;50.712;7.124;2023-02-25T06:36:18;3.70;99.90
46706;DHT22;33519;50.712;7.124;2023-02-25T06:38:49;3.70;99.90
46706;DHT22;33519;50.712;7.124;2023-02-25T06:41:17;3.70;99.90
46706;DHT22;33519;50.712;7.124;2023-02-25T06:43:44;3.70;99.90
46706;DHT22;33519;50.712;7.124;2023-02-25T06:46:12;3.70;99.90
46706;DHT22;33519;50.712;7.124;2023-02-25T06:48:39;3.70;99.90
46706;DHT22;33519;50.712;7.124;2023-02-25T06:51:06;3.70;99.90
46706;DHT22;33519;50.712;7.124;2023-02-25T06:53:35;3.70;99.90
46706;DHT22;33519;50.712;7.124;2023-02-25T06:56:02;3.70;99.90
46706;DHT22;33519;50.712;7.124;2023-02-25T06:58:29;3.70;99.90
46706;DHT22;33519;50.712;7.124;2023-02-25T07:00:55;3.70;99.90
46706;DHT22;33519;50.712;7.124;2023-02-25T07:03:22;3.70;99.90
46706;DHT22;33519;50.712;7.124;2023-02-25T07:05:49;3.70;99.90
46706;DHT22;33519;50.712;7.124;2023-02-25T07:08:15;3.70;99.90
46706;DHT22;33519;50.712;7.124;2023-02-25T07:10:42;3.80;99.90
46706;DHT22;33519;50.712;7.124;2023-02-25T07:13:09;3.80;99.90
46706;DHT22;33519;50.712;7.124;2023-02-25T07:15:35;3.80;99.90
46706;DHT22;33519;50.712;7.124;2023-02-25T07:18:02;3.80;99.90
46706;DHT22;33519;50.712;7.124;2023-02-25T07:20:29;3.90;99.90
46706;DHT22;33519;50.712;7.124;2023-02-25T07:22:55;3.90;99.90
46706;DHT22;33519;50.712;7.124;2023-02-25T07:25:22;3.90;99.90
46706;DHT22;33519;50.712;7.124;2023-02-25T07:27:49;3.90;99.90
46706;DHT22;33519;50.712;7.124;2023-02-25T07:30:15;3.90;99.90
46706;DHT22;33519;50.712;7.124;2023-02-25T07:32:42;4.00;99.90
46706;DHT22;33519;50.712;7.124;2023-02-25T07:35:09;4.00;99.90
46706;DHT22;33519;50.712;7.124;2023-02-25T07:37:36;4.00;99.90
46706;DHT22;33519;50.712;7.124;2023-02-25T07:40:03;4.00;99.90
46706;DHT22;33519;50.712;7.124;2023-02-25T07:42:30;4.00;99.90
46706;DHT22;33519;50.712;7.124;2023-02-25T07:44:57;4.00;99.90
46706;DHT22;33519;50.712;7.124;2023-02-25T07:47:26;4.10;99.90
46706;DHT22;33519;50.712;7.124;2023-02-25T07:49:53;4.00;99.90
46706;DHT22;33519;50.712;7.124;2023-02-25T07:52:19;4.10;99.90
46706;DHT22;33519;50.712;7.124;2023-02-25T07:54:46;4.10;99.90
46706;DHT22;33519;50.712;7.124;2023-02-25T07:57:12;4.10;99.90
46706;DHT22;33519;50.712;7.124;2023-02-25T07:59:39;4.00;99.90
46706;DHT22;33519;50.712;7.124;2023-02-25T08:02:05;4.10;99.90
46706;DHT22;33519;50.712;7.124;2023-02-25T08:04:36;4.10;99.90
46706;DHT22;33519;50.712;7.124;2023-02-25T08:07:02;4.10;99.90
46706;DHT22;33519;50.712;7.124;2023-02-25T08:09:29;4.20;99.90
46706;DHT22;33519;50.712;7.124;2023-02-25T08:11:56;4.10;99.90
46706;DHT22;33519;50.712;7.124;2023-02-25T08:14:22;4.20;99.90
46706;DHT22;33519;50.712;7.124;2023-02-25T08:16:49;4.20;99.90
46706;DHT22;33519;50.712;7.124;2023-02-25T08:19:15;4.20;99.90
46706;DHT22;33519;50.712;7.124;2023-02-25T08:21:42;4.20;99.90
46706;DHT22;33519;50.712;7.124;2023-02-25T08:24:08;4.20;99.90
46706;DHT22;33519;50.712;7.124;2023-02-25T08:26:35;4.10;99.90
46706;DHT22;33519;50.712;7.124;2023-02-25T08:29:02;4.10;99.90
46706;DHT22;33519;50.712;7.124;2023-02-25T08:31:28;4.10;99.90
46706;DHT22;33519;50.712;7.124;2023-02-25T08:33:55;4.10;99.90
46706;DHT22;33519;50.712;7.124;2023-02-25T08:36:26;4.20;99.90
46706;DHT22;33519;50.712;7.124;2023-02-25T08:38:53;4.20;99.90
46706;DHT22;33519;50.712;7.124;2023-02-25T08:41:20;4.30;99.90
46706;DHT22;33519;50.712;7.124;2023-02-25T08:43:48;4.40;99.90
46706;DHT22;33519;50.712;7.124;2023-02-25T08:46:17;4.50;99.90
46706;DHT22;33519;50.712;7.124;2023-02-25T08:48:50;4.50;99.90
46706;DHT22;33519;50.712;7.124;2023-02-25T08:51:17;4.60;99.90
46706;DHT22;33519;50.712;7.124;2023-02-25T08:53:44;4.70;99.90
46706;DHT22;33519;50.712;7.124;2023-02-25T08:56:11;4.70;99.90
46706;DHT22;33519;50.712;7.124;2023-02-25T08:58:38;4.60;99.90
46706;DHT22;33519;50.712;7.124;2023-02-25T09:01:09;4.70;99.90
46706;DHT22;33519;50.712;7.124;2023-02-25T09:03:42;4.90;99.90
46706;DHT22;33519;50.712;7.124;2023-02-25T09:06:19;5.00;99.90
46706;DHT22;33519;50.712;7.124;2023-02-25T09:08:46;5.00;99.90
46706;DHT22;33519;50.712;7.124;2023-02-25T09:11:13;5.00;99.90
46706;DHT22;33519;50.712;7.124;2023-02-25T09:13:39;5.20;99.90
46706;DHT22;33519;50.712;7.124;2023-02-25T09:16:06;5.30;99.90
46706;DHT22;33519;50.712;7.124;2023-02-25T09:18:33;5.40;99.90
46706;DHT22;33519;50.712;7.124;2023-02-25T09:21:00;5.50;99.90
46706;DHT22;33519;50.712;7.124;2023-02-25T09:23:26;5.40;99.90
46706;DHT22;33519;50.712;7.124;2023-02-25T09:25:53;5.20;99.90
46706;DHT22;33519;50.712;7.124;2023-02-25T09:28:19;5.40;99.90
46706;DHT22;33519;50.712;7.124;2023-02-25T09:30:49;5.40;99.90
46706;DHT22;33519;50.712;7.124;2023-02-25T09:33:16;5.40;99.90
46706;DHT22;33519;50.712;7.124;2023-02-25T09:35:42;5.10;99.90
46706;DHT22;33519;50.712;7.124;2023-02-25T09:38:10;4.70;99.90
46706;DHT22;33519;50.712;7.124;2023-02-25T09:40:39;4.40;99.90
46706;DHT22;33519;50.712;7.124;2023-02-25T09:43:23;4.30;99.90
46706;DHT22;33519;50.712;7.124;2023-02-25T09:45:51;4.20;99.90
46706;DHT22;33519;50.712;7.124;2023-02-25T09:48:25;4.20;99.90
46706;DHT22;33519;50.712;7.124;2023-02-25T09:51:35;4.20;99.90
46706;DHT22;33519;50.712;7.124;2023-02-25T09:53:44;4.10;99.90
46706;DHT22;33519;50.712;7.124;2023-02-25T09:56:13;4.20;99.90
46706;DHT22;33519;50.712;7.124;2023-02-25T09:58:42;4.10;99.90
46706;DHT22;33519;50.712;7.124;2023-02-25T10:06:04;4.00;99.90
46706;DHT22;33519;50.712;7.124;2023-02-25T10:08:41;3.90;99.90
46706;DHT22;33519;50.712;7.124;2023-02-25T10:11:12;4.00;99.90
46706;DHT22;33519;50.712;7.124;2023-02-25T10:21:34;4.40;99.90
46706;DHT22;33519;50.712;7.124;2023-02-25T10:26:49;4.60;99.90
46706;DHT22;33519;50.712;7.124;2023-02-25T10:29:24;4.70;99.90
46706;DHT22;33519;50.712;7.124;2023-02-25T10:31:54;4.70;99.90
46706;DHT22;33519;50.712;7.124;2023-02-25T10:34:24;4.90;99.90
46706;DHT22;33519;50.712;7.124;2023-02-25T10:36:55;4.90;99.90
46706;DHT22;33519;50.712;7.124;2023-02-25T10:39:22;4.80;99.90
46706;DHT22;33519;50.712;7.124;2023-02-25T10:41:49;4.80;99.90
46706;DHT22;33519;50.712;7.124;2023-02-25T10:44:16;4.90;99.90
46706;DHT22;33519;50.712;7.124;2023-02-25T10:46:45;5.10;99.90
46706;DHT22;33519;50.712;7.124;2023-02-25T10:49:16;5.10;99.90
46706;DHT22;33519;50.712;7.124;2023-02-25T10:54:22;5.40;99.90
46706;DHT22;33519;50.712;7.124;2023-02-25T10:56:50;5.50;99.90
46706;DHT22;33519;50.712;7.124;2023-02-25T10:59:22;5.70;99.90
46706;DHT22;33519;50.712;7.124;2023-02-25T11:01:49;6.30;99.90
46706;DHT22;33519;50.712;7.124;2023-02-25T11:04:22;7.40;99.90
46706;DHT22;33519;50.712;7.124;2023-02-25T11:06:49;7.60;99.90
46706;DHT22;33519;50.712;7.124;2023-02-25T11:11:52;7.90;99.90
46706;DHT22;33519;50.712;7.124;2023-02-25T11:14:25;7.60;99.90
46706;DHT22;33519;50.712;7.124;2023-02-25T11:17:00;7.20;99.90
46706;DHT22;33519;50.712;7.124;2023-02-25T11:19:28;7.00;99.90
46706;DHT22;33519;50.712;7.124;2023-02-25T11:21:57;6.90;99.90
46706;DHT22;33519;50.712;7.124;2023-02-25T11:24:28;6.60;99.90
46706;DHT22;33519;50.712;7.124;2023-02-25T11:26:56;6.50;99.90
46706;DHT22;33519;50.712;7.124;2023-02-25T11:29:29;6.50;99.90
46706;DHT22;33519;50.712;7.124;2023-02-25T11:32:05;6.60;99.90
46706;DHT22;33519;50.712;7.124;2023-02-25T11:34:33;6.80;99.90
46706;DHT22;33519;50.712;7.124;2023-02-25T11:37:25;6.50;99.90
46706;DHT22;33519;50.712;7.124;2023-02-25T11:39:53;6.80;99.90
46706;DHT22;33519;50.712;7.124;2023-02-25T11:42:22;6.30;99.90
46706;DHT22;33519;50.712;7.124;2023-02-25T11:44:49;5.80;99.90
46706;DHT22;33519;50.712;7.124;2023-02-25T11:47:30;4.40;99.90
46706;DHT22;33519;50.712;7.124;2023-02-25T12:07:37;4.40;99.90
46706;DHT22;33519;50.712;7.124;2023-02-25T12:21:14;5.40;99.90
46706;DHT22;33519;50.712;7.124;2023-02-25T12:26:39;5.20;99.90
46706;DHT22;33519;50.712;7.124;2023-02-25T12:34:35;5.30;99.90
46706;DHT22;33519;50.712;7.124;2023-02-25T12:45:19;7.40;99.90
46706;DHT22;33519;50.712;7.124;2023-02-25T12:47:49;8.00;99.90
46706;DHT22;33519;50.712;7.124;2023-02-25T13:03:30;8.80;99.90
46706;DHT22;33519;50.712;7.124;2023-02-25T13:08:33;7.00;99.90
46706;DHT22;33519;50.712;7.124;2023-02-25T13:27:01;5.70;99.90
46706;DHT22;33519;50.712;7.124;2023-02-25T13:29:33;6.20;99.90
46706;DHT22;33519;50.712;7.124;2023-02-25T13:35:12;7.30;99.90
46706;DHT22;33519;50.712;7.124;2023-02-25T13:37:53;7.80;99.90
46706;DHT22;33519;50.712;7.124;2023-02-25T13:40:36;7.90;99.90
46706;DHT22;33519;50.712;7.124;2023-02-25T13:51:08;7.00;99.90
46706;DHT22;33519;50.712;7.124;2023-02-25T13:56:16;5.40;99.90
46706;DHT22;33519;50.712;7.124;2023-02-25T14:12:15;5.30;99.90
46706;DHT22;33519;50.712;7.124;2023-02-25T14:17:42;5.70;99.90
46706;DHT22;33519;50.712;7.124;2023-02-25T14:20:32;6.50;99.90
46706;DHT22;33519;50.712;7.124;2023-02-25T14:25:40;7.40;99.90
46706;DHT22;33519;50.712;7.124;2023-02-25T14:28:21;7.60;99.90
46706;DHT22;33519;50.712;7.124;2023-02-25T14:41:12;7.70;99.90
46706;DHT22;33519;50.712;7.124;2023-02-25T14:43:44;7.50;98.30
46706;DHT22;33519;50.712;7.124;2023-02-25T14:46:16;8.20;97.50
46706;DHT22;33519;50.712;7.124;2023-02-25T14:48:47;8.00;97.90
46706;DHT22;33519;50.712;7.124;2023-02-25T14:59:08;7.00;96.90
46706;DHT22;33519;50.712;7.124;2023-02-25T15:06:59;7.10;92.90
46706;DHT22;33519;50.712;7.124;2023-02-25T15:14:33;8.60;91.10
46706;DHT22;33519;50.712;7.124;2023-02-25T15:20:02;7.20;90.50
46706;DHT22;33519;50.712;7.124;2023-02-25T15:22:32;7.20;91.30
46706;DHT22;33519;50.712;7.124;2023-02-25T15:27:51;7.90;91.00
46706;DHT22;33519;50.712;7.124;2023-02-25T15:30:22;8.10;90.70
46706;DHT22;33519;50.712;7.124;2023-02-25T15:38:07;8.30;90.20
46706;DHT22;33519;50.712;7.124;2023-02-25T15:40:39;8.50;86.50
46706;DHT22;33519;50.712;7.124;2023-02-25T15:55:40;7.90;81.40
46706;DHT22;33519;50.712;7.124;2023-02-25T15:58:37;8.10;80.00
46706;DHT22;33519;50.712;7.124;2023-02-25T16:06:10;8.30;77.60
46706;DHT22;33519;50.712;7.124;2023-02-25T16:13:58;8.90;74.70
46706;DHT22;33519;50.712;7.124;2023-02-25T16:16:26;8.20;77.80
46706;DHT22;33519;50.712;7.124;2023-02-25T16:18:54;8.10;76.20
46706;DHT22;33519;50.712;7.124;2023-02-25T16:21:26;8.30;77.60
46706;DHT22;33519;50.712;7.124;2023-02-25T16:23:55;8.40;76.40
46706;DHT22;33519;50.712;7.124;2023-02-25T16:26:40;8.30;76.50
46706;DHT22;33519;50.712;7.124;2023-02-25T16:29:29;8.20;75.90
46706;DHT22;33519;50.712;7.124;2023-02-25T16:34:54;6.80;73.60
46706;DHT22;33519;50.712;7.124;2023-02-25T16:43:03;6.50;75.10
46706;DHT22;33519;50.712;7.124;2023-02-25T16:45:32;6.00;77.60
46706;DHT22;33519;50.712;7.124;2023-02-25T16:48:03;6.00;79.20
46706;DHT22;33519;50.712;7.124;2023-02-25T16:50:31;5.60;79.80
46706;DHT22;33519;50.712;7.124;2023-02-25T16:52:59;5.40;79.70
46706;DHT22;33519;50.712;7.124;2023-02-25T16:55:28;5.30;80.80
46706;DHT22;33519;50.712;7.124;2023-02-25T17:01:00;5.10;78.40
46706;DHT22;33519;50.712;7.124;2023-02-25T17:03:30;5.00;77.60
46706;DHT22;33519;50.712;7.124;2023-02-25T17:06:06;4.90;78.50
46706;DHT22;33519;50.712;7.124;2023-02-25T17:08:33;4.80;77.70
46706;DHT22;33519;50.712;7.124;2023-02-25T17:11:00;4.70;77.70
46706;DHT22;33519;50.712;7.124;2023-02-25T17:13:30;4.70;77.40
46706;DHT22;33519;50.712;7.124;2023-02-25T17:15:57;4.60;77.90
46706;DHT22;33519;50.712;7.124;2023-02-25T17:18:45;4.60;78.30
46706;DHT22;33519;50.712;7.124;2023-02-25T17:21:21;4.50;79.60
46706;DHT22;33519;50.712;7.124;2023-02-25T17:23:49;4.40;79.40
46706;DHT22;33519;50.712;7.124;2023-02-25T17:26:17;4.30;81.30
46706;DHT22;33519;50.712;7.124;2023-02-25T17:28:45;4.30;83.10
46706;DHT22;33519;50.712;7.124;2023-02-25T17:31:14;4.20;82.70
46706;DHT22;33519;50.712;7.124;2023-02-25T17:33:51;4.20;83.60
46706;DHT22;33519;50.712;7.124;2023-02-25T17:36:20;4.20;82.90
46706;DHT22;33519;50.712;7.124;2023-02-25T17:38:49;4.20;82.30
46706;DHT22;33519;50.712;7.124;2023-02-25T17:41:17;4.20;83.20
46706;DHT22;33519;50.712;7.124;2023-02-25T17:43:44;4.20;83.20
46706;DHT22;33519;50.712;7.124;2023-02-25T17:49:00;4.00;84.20
46706;DHT22;33519;50.712;7.124;2023-02-25T17:51:34;4.00;86.40
46706;DHT22;33519;50.712;7.124;2023-02-25T17:54:03;3.90;87.20
46706;DHT22;33519;50.712;7.124;2023-02-25T17:56:30;3.90;88.30
46706;DHT22;33519;50.712;7.124;2023-02-25T17:58:59;3.90;87.90
46706;DHT22;33519;50.712;7.124;2023-02-25T18:01:28;3.90;87.60
46706;DHT22;33519;50.712;7.124;2023-02-25T18:03:58;3.80;89.10
46706;DHT22;33519;50.712;7.124;2023-02-25T18:06:38;3.80;89.70
46706;DHT22;33519;50.712;7.124;2023-02-25T18:09:05;3.70;90.20
46706;DHT22;33519;50.712;7.124;2023-02-25T18:11:53;3.70;89.60
46706;DHT22;33519;50.712;7.124;2023-02-25T18:14:24;3.70;88.30
46706;DHT22;33519;50.712;7.124;2023-02-25T18:16:55;3.80;87.20
46706;DHT22;33519;50.712;7.124;2023-02-25T18:19:44;3.70;87.80
46706;DHT22;33519;50.712;7.124;2023-02-25T18:24:54;3.70;86.50
46706;DHT22;33519;50.712;7.124;2023-02-25T18:27:31;3.60;87.80
46706;DHT22;33519;50.712;7.124;2023-02-25T18:30:13;3.60;87.90
46706;DHT22;33519;50.712;7.124;2023-02-25T18:32:41;3.60;88.60
46706;DHT22;33519;50.712;7.124;2023-02-25T18:35:07;3.50;89.90
46706;DHT22;33519;50.712;7.124;2023-02-25T18:37:35;3.50;88.60
46706;DHT22;33519;50.712;7.124;2023-02-25T18:40:02;3.40;89.40
46706;DHT22;33519;50.712;7.124;2023-02-25T18:42:29;3.40;89.30
46706;DHT22;33519;50.712;7.124;2023-02-25T18:44:55;3.40;90.70
46706;DHT22;33519;50.712;7.124;2023-02-25T18:47:22;3.30;90.50
46706;DHT22;33519;50.712;7.124;2023-02-25T18:49:49;3.30;90.10
46706;DHT22;33519;50.712;7.124;2023-02-25T18:52:17;3.30;90.00
46706;DHT22;33519;50.712;7.124;2023-02-25T18:54:45;3.30;90.00
46706;DHT22;33519;50.712;7.124;2023-02-25T18:57:15;3.20;91.00
46706;DHT22;33519;50.712;7.124;2023-02-25T18:59:42;3.20;91.10
46706;DHT22;33519;50.712;7.124;2023-02-25T19:02:14;3.20;91.20
46706;DHT22;33519;50.712;7.124;2023-02-25T19:04:46;3.20;91.40
46706;DHT22;33519;50.712;7.124;2023-02-25T19:07:13;3.20;91.50
46706;DHT22;33519;50.712;7.124;2023-02-25T19:09:39;3.20;91.70
46706;DHT22;33519;50.712;7.124;2023-02-25T19:12:10;3.20;91.60
46706;DHT22;33519;50.712;7.124;2023-02-25T19:14:37;3.20;92.30
46706;DHT22;33519;50.712;7.124;2023-02-25T19:17:04;3.20;92.40
46706;DHT22;33519;50.712;7.124;2023-02-25T19:19:31;3.10;92.90
46706;DHT22;33519;50.712;7.124;2023-02-25T19:21:58;3.10;93.00
46706;DHT22;33519;50.712;7.124;2023-02-25T19:24:25;3.10;92.60
46706;DHT22;33519;50.712;7.124;2023-02-25T19:26:51;3.10;93.20
46706;DHT22;33519;50.712;7.124;2023-02-25T19:29:18;3.00;93.60
46706;DHT22;33519;50.712;7.124;2023-02-25T19:31:45;2.90;94.10
46706;DHT22;33519;50.712;7.124;2023-02-25T19:34:12;2.90;94.30
46706;DHT22;33519;50.712;7.124;2023-02-25T19:36:38;2.90;94.00
46706;DHT22;33519;50.712;7.124;2023-02-25T19:39:05;2.80;94.90
46706;DHT22;33519;50.712;7.124;2023-02-25T19:41:32;2.80;94.70
46706;DHT22;33519;50.712;7.124;2023-02-25T19:43:58;2.70;95.30
46706;DHT22;33519;50.712;7.124;2023-02-25T19:46:25;2.80;94.40
46706;DHT22;33519;50.712;7.124;2023-02-25T19:48:52;2.70;95.30